createdAt,value
2023-02-11T00:12:49.086Z,-2.95
2023-02-11T00:32:49.053Z,-2.86
2023-02-11T00:52:49.070Z,-3.19
2023-02-11T01:12:49.084Z,-3.22
2023-02-11T01:32:49.083Z,-3.37
2023-02-11T01:52:49.106Z,-3.42
2023-02-11T02:12:49.282Z,-3.17
2023-02-11T02:32:49.209Z,-2.90
2023-02-11T02:52:49.221Z,-2.56
2023-02-11T03:12:49.223Z,-2.39
2023-02-11T03:32:49.229Z,-2.33
2023-02-11T03:52:49.241Z,-2.39
2023-02-11T04:12:49.253Z,-2.54
2023-02-11T04:32:49.282Z,-2.68
2023-02-11T04:52:49.268Z,-2.84
2023-02-11T05:12:49.270Z,-2.64
2023-02-11T05:32:49.288Z,-2.09
2023-02-11T05:52:49.302Z,-1.70
2023-02-11T06:12:49.294Z,-1.46
2023-02-11T06:32:49.303Z,-1.34
2023-02-11T06:52:49.416Z,-1.24
2023-02-11T07:12:49.321Z,-1.09
2023-02-11T07:32:49.321Z,-0.98
2023-02-11T08:12:49.436Z,-0.17
2023-02-11T08:32:49.388Z,0.34
2023-02-11T08:52:49.377Z,0.45
2023-02-11T09:12:49.389Z,0.88
2023-02-11T09:32:49.406Z,1.26
2023-02-11T09:52:49.302Z,1.56
2023-02-11T10:12:49.312Z,2.22
2023-02-11T10:32:49.380Z,2.22
2023-02-11T10:52:49.330Z,3.03
2023-02-11T11:12:49.344Z,2.87
2023-02-11T11:32:49.373Z,3.37
2023-02-11T11:52:49.350Z,4.04
2023-02-11T12:12:49.385Z,3.96
2023-02-11T12:32:49.370Z,4.11
2023-02-11T12:52:49.404Z,4.24
2023-02-11T13:12:49.284Z,4.66
2023-02-11T13:32:49.304Z,5.64
2023-02-11T13:52:49.484Z,5.58
2023-02-11T14:12:49.317Z,5.88
2023-02-11T14:32:49.327Z,5.24
2023-02-11T14:52:49.338Z,5.16
2023-02-11T15:12:49.248Z,5.04
2023-02-11T15:32:49.260Z,4.58
2023-02-11T15:52:49.325Z,3.98
2023-02-11T16:12:49.276Z,3.54
2023-02-11T16:32:49.284Z,3.19
2023-02-11T16:52:49.295Z,2.67
2023-02-11T17:12:49.295Z,1.97
2023-02-11T17:32:49.975Z,1.58
2023-02-11T17:52:49.313Z,1.32
2023-02-11T18:12:49.220Z,1.15
2023-02-11T18:32:49.273Z,1.74
2023-02-11T18:52:49.265Z,2.17
2023-02-11T19:12:49.247Z,2.15
2023-02-11T19:32:49.257Z,1.79
2023-02-11T19:52:49.270Z,2.03
2023-02-11T20:12:49.288Z,1.87
2023-02-11T20:32:49.289Z,1.91
2023-02-11T20:52:49.282Z,1.83
2023-02-11T21:12:49.295Z,1.73
2023-02-11T21:32:49.313Z,1.63
2023-02-11T21:52:49.314Z,1.54
2023-02-11T22:12:49.327Z,1.62
2023-02-11T22:32:49.320Z,1.79
2023-02-11T22:52:49.234Z,1.84
2023-02-11T23:12:49.235Z,1.97
2023-02-11T23:32:49.312Z,1.85
2023-02-11T23:52:49.262Z,1.93
